sensor_id;sensor_type;location;lat;lon;timestamp;temperature;humidity
75786;DHT22;64402;44.708;37.644;2023-10-13T00:02:07;6.79;83.85
75786;DHT22;64402;44.708;37.644;2023-10-13T00:04:34;6.82;83.52
75786;DHT22;64402;44.708;37.644;2023-10-13T00:07:03;6.78;84.42
75786;DHT22;64402;44.708;37.644;2023-10-13T00:09:34;6.72;84.46
75786;DHT22;64402;44.708;37.644;2023-10-13T00:12:08;6.76;84.87
75786;DHT22;64402;44.708;37.644;2023-10-13T00:14:41;6.75;83.78
75786;DHT22;64402;44.708;37.644;2023-10-13T00:17:07;6.74;83.95
75786;DHT22;64402;44.708;37.644;2023-10-13T00:19:37;6.75;83.49
75786;DHT22;64402;44.708;37.644;2023-10-13T00:22:08;6.68;83.85
75786;DHT22;64402;44.708;37.644;2023-10-13T00:24:39;6.70;83.79
75786;DHT22;64402;44.708;37.644;2023-10-13T00:27:20;6.69;83.96
75786;DHT22;64402;44.708;37.644;2023-10-13T00:30:04;6.68;83.14
75786;DHT22;64402;44.708;37.644;2023-10-13T00:32:43;6.63;83.30
75786;DHT22;64402;44.708;37.644;2023-10-13T00:35:11;6.57;83.55
75786;DHT22;64402;44.708;37.644;2023-10-13T00:37:40;6.52;83.74
75786;DHT22;64402;44.708;37.644;2023-10-13T00:40:11;6.53;83.44
75786;DHT22;64402;44.708;37.644;2023-10-13T00:42:56;6.52;83.55
75786;DHT22;64402;44.708;37.644;2023-10-13T00:45:47;6.46;83.74
75786;DHT22;64402;44.708;37.644;2023-10-13T00:48:31;6.44;83.59
75786;DHT22;64402;44.708;37.644;2023-10-13T00:51:03;6.44;83.63
75786;DHT22;64402;44.708;37.644;2023-10-13T00:53:36;6.42;83.54
75786;DHT22;64402;44.708;37.644;2023-10-13T00:56:06;6.41;84.33
75786;DHT22;64402;44.708;37.644;2023-10-13T00:58:34;6.40;83.51
75786;DHT22;64402;44.708;37.644;2023-10-13T01:01:01;6.43;84.16
75786;DHT22;64402;44.708;37.644;2023-10-13T01:03:50;6.42;84.65
75786;DHT22;64402;44.708;37.644;2023-10-13T01:06:27;6.41;83.83
75786;DHT22;64402;44.708;37.644;2023-10-13T01:08:58;6.41;83.70
75786;DHT22;64402;44.708;37.644;2023-10-13T01:11:26;6.35;83.94
75786;DHT22;64402;44.708;37.644;2023-10-13T01:13:56;6.35;83.66
75786;DHT22;64402;44.708;37.644;2023-10-13T01:16:22;6.34;83.68
75786;DHT22;64402;44.708;37.644;2023-10-13T01:18:53;6.31;84.40
75786;DHT22;64402;44.708;37.644;2023-10-13T01:21:19;6.33;84.49
75786;DHT22;64402;44.708;37.644;2023-10-13T01:23:53;6.31;84.58
75786;DHT22;64402;44.708;37.644;2023-10-13T01:26:19;6.29;85.02
75786;DHT22;64402;44.708;37.644;2023-10-13T01:28:57;6.26;84.88
75786;DHT22;64402;44.708;37.644;2023-10-13T01:31:23;6.25;85.38
75786;DHT22;64402;44.708;37.644;2023-10-13T01:33:57;6.24;85.10
75786;DHT22;64402;44.708;37.644;2023-10-13T01:36:27;6.20;85.22
75786;DHT22;64402;44.708;37.644;2023-10-13T01:38:53;6.20;85.43
75786;DHT22;64402;44.708;37.644;2023-10-13T01:41:21;6.21;85.06
75786;DHT22;64402;44.708;37.644;2023-10-13T01:43:48;6.13;84.62
75786;DHT22;64402;44.708;37.644;2023-10-13T01:46:14;6.12;84.81
75786;DHT22;64402;44.708;37.644;2023-10-13T01:48:47;6.09;84.56
75786;DHT22;64402;44.708;37.644;2023-10-13T01:51:13;6.09;84.36
75786;DHT22;64402;44.708;37.644;2023-10-13T01:53:40;6.07;84.34
75786;DHT22;64402;44.708;37.644;2023-10-13T01:56:09;6.06;85.41
75786;DHT22;64402;44.708;37.644;2023-10-13T01:58:40;6.04;85.33
75786;DHT22;64402;44.708;37.644;2023-10-13T02:01:13;6.02;85.46
75786;DHT22;64402;44.708;37.644;2023-10-13T02:03:47;5.97;85.01
75786;DHT22;64402;44.708;37.644;2023-10-13T02:06:15;5.94;84.45
75786;DHT22;64402;44.708;37.644;2023-10-13T02:08:43;5.92;84.67
75786;DHT22;64402;44.708;37.644;2023-10-13T02:11:10;5.89;84.97
75786;DHT22;64402;44.708;37.644;2023-10-13T02:13:36;5.89;84.69
75786;DHT22;64402;44.708;37.644;2023-10-13T02:16:08;5.84;84.84
75786;DHT22;64402;44.708;37.644;2023-10-13T02:18:34;5.77;84.71
75786;DHT22;64402;44.708;37.644;2023-10-13T02:21:07;5.75;84.56
75786;DHT22;64402;44.708;37.644;2023-10-13T02:23:43;5.70;83.97
75786;DHT22;64402;44.708;37.644;2023-10-13T02:26:12;5.67;83.58
75786;DHT22;64402;44.708;37.644;2023-10-13T02:28:53;5.70;83.89
75786;DHT22;64402;44.708;37.644;2023-10-13T02:31:23;5.72;83.91
75786;DHT22;64402;44.708;37.644;2023-10-13T02:33:52;5.65;83.36
75786;DHT22;64402;44.708;37.644;2023-10-13T02:36:19;5.62;84.16
75786;DHT22;64402;44.708;37.644;2023-10-13T02:38:49;5.61;84.35
75786;DHT22;64402;44.708;37.644;2023-10-13T02:41:18;5.59;84.19
75786;DHT22;64402;44.708;37.644;2023-10-13T02:43:55;5.56;83.83
75786;DHT22;64402;44.708;37.644;2023-10-13T02:46:22;5.57;83.92
75786;DHT22;64402;44.708;37.644;2023-10-13T02:48:49;5.56;83.61
75786;DHT22;64402;44.708;37.644;2023-10-13T02:51:23;5.52;83.94
75786;DHT22;64402;44.708;37.644;2023-10-13T02:54:01;5.49;84.25
75786;DHT22;64402;44.708;37.644;2023-10-13T02:57:00;5.50;85.07
75786;DHT22;64402;44.708;37.644;2023-10-13T02:59:30;5.51;84.70
75786;DHT22;64402;44.708;37.644;2023-10-13T03:02:07;5.53;85.38
75786;DHT22;64402;44.708;37.644;2023-10-13T03:04:48;5.57;85.64
75786;DHT22;64402;44.708;37.644;2023-10-13T03:07:15;5.59;85.29
75786;DHT22;64402;44.708;37.644;2023-10-13T03:09:42;5.55;85.16
75786;DHT22;64402;44.708;37.644;2023-10-13T03:12:17;5.55;86.25
75786;DHT22;64402;44.708;37.644;2023-10-13T03:14:43;5.59;86.52
75786;DHT22;64402;44.708;37.644;2023-10-13T03:17:17;5.63;86.43
75786;DHT22;64402;44.708;37.644;2023-10-13T03:19:45;5.65;86.43
75786;DHT22;64402;44.708;37.644;2023-10-13T03:22:16;5.67;86.40
75786;DHT22;64402;44.708;37.644;2023-10-13T03:24:43;5.69;86.07
75786;DHT22;64402;44.708;37.644;2023-10-13T03:27:16;5.71;86.37
75786;DHT22;64402;44.708;37.644;2023-10-13T03:29:44;5.72;86.58
75786;DHT22;64402;44.708;37.644;2023-10-13T03:32:13;5.72;86.90
75786;DHT22;64402;44.708;37.644;2023-10-13T03:34:44;5.71;87.41
75786;DHT22;64402;44.708;37.644;2023-10-13T03:37:26;5.72;87.08
75786;DHT22;64402;44.708;37.644;2023-10-13T03:40:12;5.66;85.73
75786;DHT22;64402;44.708;37.644;2023-10-13T03:42:51;5.60;84.88
75786;DHT22;64402;44.708;37.644;2023-10-13T03:45:40;5.60;85.09
75786;DHT22;64402;44.708;37.644;2023-10-13T03:48:16;5.57;84.78
75786;DHT22;64402;44.708;37.644;2023-10-13T03:51:01;5.57;84.90
75786;DHT22;64402;44.708;37.644;2023-10-13T03:53:36;5.53;85.09
75786;DHT22;64402;44.708;37.644;2023-10-13T03:56:04;5.52;84.81
75786;DHT22;64402;44.708;37.644;2023-10-13T03:58:53;5.53;85.27
75786;DHT22;64402;44.708;37.644;2023-10-13T04:01:20;5.56;84.86
75786;DHT22;64402;44.708;37.644;2023-10-13T04:04:01;5.56;84.54
75786;DHT22;64402;44.708;37.644;2023-10-13T04:06:34;5.61;84.28
75786;DHT22;64402;44.708;37.644;2023-10-13T04:09:22;5.62;84.86
75786;DHT22;64402;44.708;37.644;2023-10-13T04:12:07;5.65;85.38
75786;DHT22;64402;44.708;37.644;2023-10-13T04:14:41;5.70;85.60
75786;DHT22;64402;44.708;37.644;2023-10-13T04:17:26;5.77;85.66
75786;DHT22;64402;44.708;37.644;2023-10-13T04:19:57;5.80;85.02
75786;DHT22;64402;44.708;37.644;2023-10-13T04:22:34;5.85;84.80
75786;DHT22;64402;44.708;37.644;2023-10-13T04:25:26;5.94;84.45
75786;DHT22;64402;44.708;37.644;2023-10-13T04:28:25;5.98;84.65
75786;DHT22;64402;44.708;37.644;2023-10-13T04:31:00;6.02;84.40
75786;DHT22;64402;44.708;37.644;2023-10-13T04:33:40;6.04;84.22
75786;DHT22;64402;44.708;37.644;2023-10-13T04:36:22;6.10;84.44
75786;DHT22;64402;44.708;37.644;2023-10-13T04:38:55;6.14;84.93
75786;DHT22;64402;44.708;37.644;2023-10-13T04:41:35;6.23;86.60
75786;DHT22;64402;44.708;37.644;2023-10-13T04:44:10;6.34;86.21
75786;DHT22;64402;44.708;37.644;2023-10-13T04:46:49;6.48;86.10
75786;DHT22;64402;44.708;37.644;2023-10-13T04:49:15;6.56;85.32
75786;DHT22;64402;44.708;37.644;2023-10-13T04:52:02;6.68;85.38
75786;DHT22;64402;44.708;37.644;2023-10-13T04:54:39;6.78;85.90
75786;DHT22;64402;44.708;37.644;2023-10-13T04:57:12;6.86;85.85
75786;DHT22;64402;44.708;37.644;2023-10-13T04:59:56;6.95;85.77
75786;DHT22;64402;44.708;37.644;2023-10-13T05:02:40;7.08;86.24
75786;DHT22;64402;44.708;37.644;2023-10-13T05:05:12;7.19;87.26
75786;DHT22;64402;44.708;37.644;2023-10-13T05:07:48;7.30;87.28
75786;DHT22;64402;44.708;37.644;2023-10-13T05:10:34;7.42;86.25
75786;DHT22;64402;44.708;37.644;2023-10-13T05:13:30;7.58;86.46
75786;DHT22;64402;44.708;37.644;2023-10-13T05:16:15;7.72;87.12
75786;DHT22;64402;44.708;37.644;2023-10-13T05:18:59;7.85;87.32
75786;DHT22;64402;44.708;37.644;2023-10-13T05:21:44;7.98;87.42
75786;DHT22;64402;44.708;37.644;2023-10-13T05:24:39;8.11;86.96
75786;DHT22;64402;44.708;37.644;2023-10-13T05:27:25;8.23;87.12
75786;DHT22;64402;44.708;37.644;2023-10-13T05:30:09;8.37;86.52
75786;DHT22;64402;44.708;37.644;2023-10-13T05:32:54;8.53;87.89
75786;DHT22;64402;44.708;37.644;2023-10-13T05:35:39;8.71;86.51
75786;DHT22;64402;44.708;37.644;2023-10-13T05:38:23;9.04;84.32
75786;DHT22;64402;44.708;37.644;2023-10-13T05:41:07;9.09;84.87
75786;DHT22;64402;44.708;37.644;2023-10-13T05:43:52;9.23;86.69
75786;DHT22;64402;44.708;37.644;2023-10-13T05:46:37;9.39;87.98
75786;DHT22;64402;44.708;37.644;2023-10-13T05:49:04;9.53;87.27
75786;DHT22;64402;44.708;37.644;2023-10-13T05:51:33;9.70;87.41
75786;DHT22;64402;44.708;37.644;2023-10-13T05:54:03;9.89;86.06
75786;DHT22;64402;44.708;37.644;2023-10-13T05:56:46;10.08;86.08
75786;DHT22;64402;44.708;37.644;2023-10-13T05:59:33;10.34;87.57
75786;DHT22;64402;44.708;37.644;2023-10-13T06:02:19;10.63;87.92
75786;DHT22;64402;44.708;37.644;2023-10-13T06:05:08;10.87;86.11
75786;DHT22;64402;44.708;37.644;2023-10-13T06:07:53;11.15;84.61
75786;DHT22;64402;44.708;37.644;2023-10-13T06:10:39;11.43;82.01
75786;DHT22;64402;44.708;37.644;2023-10-13T06:13:24;11.79;77.47
75786;DHT22;64402;44.708;37.644;2023-10-13T06:16:13;13.69;71.89
75786;DHT22;64402;44.708;37.644;2023-10-13T06:18:58;16.03;61.44
75786;DHT22;64402;44.708;37.644;2023-10-13T06:21:44;17.98;55.74
75786;DHT22;64402;44.708;37.644;2023-10-13T06:24:29;19.20;52.04
75786;DHT22;64402;44.708;37.644;2023-10-13T06:27:15;20.03;44.87
75786;DHT22;64402;44.708;37.644;2023-10-13T06:30:00;20.70;45.51
75786;DHT22;64402;44.708;37.644;2023-10-13T06:32:30;21.55;41.62
75786;DHT22;64402;44.708;37.644;2023-10-13T06:34:58;21.99;40.04
75786;DHT22;64402;44.708;37.644;2023-10-13T06:37:24;21.91;42.05
75786;DHT22;64402;44.708;37.644;2023-10-13T06:40:00;22.23;40.08
75786;DHT22;64402;44.708;37.644;2023-10-13T06:42:32;22.41;39.59
75786;DHT22;64402;44.708;37.644;2023-10-13T06:45:01;22.49;39.92
75786;DHT22;64402;44.708;37.644;2023-10-13T06:47:46;23.44;38.69
75786;DHT22;64402;44.708;37.644;2023-10-13T06:50:15;23.85;37.08
75786;DHT22;64402;44.708;37.644;2023-10-13T06:52:42;23.84;36.85
75786;DHT22;64402;44.708;37.644;2023-10-13T06:55:09;23.76;36.80
75786;DHT22;64402;44.708;37.644;2023-10-13T06:57:46;24.16;34.67
75786;DHT22;64402;44.708;37.644;2023-10-13T07:00:13;24.75;34.46
75786;DHT22;64402;44.708;37.644;2023-10-13T07:02:48;25.01;31.68
75786;DHT22;64402;44.708;37.644;2023-10-13T07:05:17;25.22;31.77
75786;DHT22;64402;44.708;37.644;2023-10-13T07:07:45;25.72;31.36
75786;DHT22;64402;44.708;37.644;2023-10-13T07:10:13;26.05;30.51
75786;DHT22;64402;44.708;37.644;2023-10-13T07:12:40;26.81;28.97
75786;DHT22;64402;44.708;37.644;2023-10-13T07:15:10;27.17;27.88
75786;DHT22;64402;44.708;37.644;2023-10-13T07:17:46;27.56;26.78
75786;DHT22;64402;44.708;37.644;2023-10-13T07:20:21;27.24;27.44
75786;DHT22;64402;44.708;37.644;2023-10-13T07:22:59;27.64;26.62
75786;DHT22;64402;44.708;37.644;2023-10-13T07:25:32;28.76;24.22
75786;DHT22;64402;44.708;37.644;2023-10-13T07:28:00;28.17;25.75
75786;DHT22;64402;44.708;37.644;2023-10-13T07:30:26;28.02;25.04
75786;DHT22;64402;44.708;37.644;2023-10-13T07:32:53;29.02;24.31
75786;DHT22;64402;44.708;37.644;2023-10-13T07:35:21;30.35;21.21
75786;DHT22;64402;44.708;37.644;2023-10-13T07:37:52;30.53;21.40
75786;DHT22;64402;44.708;37.644;2023-10-13T07:40:20;30.07;22.11
75786;DHT22;64402;44.708;37.644;2023-10-13T07:42:53;29.76;21.28
75786;DHT22;64402;44.708;37.644;2023-10-13T07:45:30;30.59;20.72
75786;DHT22;64402;44.708;37.644;2023-10-13T07:48:06;31.90;18.96
75786;DHT22;64402;44.708;37.644;2023-10-13T07:50:45;32.53;18.57
75786;DHT22;64402;44.708;37.644;2023-10-13T07:53:11;32.74;18.11
75786;DHT22;64402;44.708;37.644;2023-10-13T07:55:52;32.23;17.68
75786;DHT22;64402;44.708;37.644;2023-10-13T07:58:24;31.64;17.23
75786;DHT22;64402;44.708;37.644;2023-10-13T08:00:54;32.29;16.95
75786;DHT22;64402;44.708;37.644;2023-10-13T08:03:43;32.97;15.28
75786;DHT22;64402;44.708;37.644;2023-10-13T08:06:14;33.86;14.52
75786;DHT22;64402;44.708;37.644;2023-10-13T08:08:40;33.95;13.53
75786;DHT22;64402;44.708;37.644;2023-10-13T08:11:10;34.10;14.01
75786;DHT22;64402;44.708;37.644;2023-10-13T08:14:03;33.22;13.11
75786;DHT22;64402;44.708;37.644;2023-10-13T08:16:48;33.08;14.36
75786;DHT22;64402;44.708;37.644;2023-10-13T08:19:21;33.36;13.11
75786;DHT22;64402;44.708;37.644;2023-10-13T08:21:54;33.96;11.83
75786;DHT22;64402;44.708;37.644;2023-10-13T08:24:25;33.60;13.63
75786;DHT22;64402;44.708;37.644;2023-10-13T08:27:04;33.05;13.23
75786;DHT22;64402;44.708;37.644;2023-10-13T08:29:49;33.11;14.40
75786;DHT22;64402;44.708;37.644;2023-10-13T08:34:57;33.18;13.90
75786;DHT22;64402;44.708;37.644;2023-10-13T08:37:23;33.80;13.47
75786;DHT22;64402;44.708;37.644;2023-10-13T08:39:50;33.17;13.88
75786;DHT22;64402;44.708;37.644;2023-10-13T08:42:39;33.15;13.92
75786;DHT22;64402;44.708;37.644;2023-10-13T08:45:10;33.53;12.25
75786;DHT22;64402;44.708;37.644;2023-10-13T08:47:58;32.49;13.02
75786;DHT22;64402;44.708;37.644;2023-10-13T08:53:25;31.92;15.42
75786;DHT22;64402;44.708;37.644;2023-10-13T08:56:09;32.60;14.58
75786;DHT22;64402;44.708;37.644;2023-10-13T08:58:42;32.39;13.74
75786;DHT22;64402;44.708;37.644;2023-10-13T09:01:30;33.07;12.96
75786;DHT22;64402;44.708;37.644;2023-10-13T09:04:15;33.52;13.08
75786;DHT22;64402;44.708;37.644;2023-10-13T09:06:46;34.39;11.46
75786;DHT22;64402;44.708;37.644;2023-10-13T09:12:30;36.26;8.17
75786;DHT22;64402;44.708;37.644;2023-10-13T09:15:07;36.43;8.20
75786;DHT22;64402;44.708;37.644;2023-10-13T09:17:45;36.51;8.34
75786;DHT22;64402;44.708;37.644;2023-10-13T09:20:39;36.46;8.84
75786;DHT22;64402;44.708;37.644;2023-10-13T09:23:09;36.91;8.39
75786;DHT22;64402;44.708;37.644;2023-10-13T09:25:37;36.30;9.43
75786;DHT22;64402;44.708;37.644;2023-10-13T09:28:14;35.92;9.61
75786;DHT22;64402;44.708;37.644;2023-10-13T09:30:45;34.76;11.91
75786;DHT22;64402;44.708;37.644;2023-10-13T09:33:12;34.14;12.33
75786;DHT22;64402;44.708;37.644;2023-10-13T09:35:45;33.41;12.74
75786;DHT22;64402;44.708;37.644;2023-10-13T09:38:17;33.12;13.36
75786;DHT22;64402;44.708;37.644;2023-10-13T09:40:44;32.78;13.66
75786;DHT22;64402;44.708;37.644;2023-10-13T09:43:17;32.68;12.91
75786;DHT22;64402;44.708;37.644;2023-10-13T09:45:49;32.79;13.09
75786;DHT22;64402;44.708;37.644;2023-10-13T09:48:45;33.49;12.96
75786;DHT22;64402;44.708;37.644;2023-10-13T09:51:30;33.85;11.52
75786;DHT22;64402;44.708;37.644;2023-10-13T09:56:42;33.97;9.46
75786;DHT22;64402;44.708;37.644;2023-10-13T09:59:22;34.63;9.23
75786;DHT22;64402;44.708;37.644;2023-10-13T10:01:51;34.29;9.67
75786;DHT22;64402;44.708;37.644;2023-10-13T10:04:23;35.83;4.95
75786;DHT22;64402;44.708;37.644;2023-10-13T10:06:56;35.11;5.54
75786;DHT22;64402;44.708;37.644;2023-10-13T10:09:30;35.63;7.28
75786;DHT22;64402;44.708;37.644;2023-10-13T10:17:42;35.66;9.88
75786;DHT22;64402;44.708;37.644;2023-10-13T10:20:09;35.69;9.87
75786;DHT22;64402;44.708;37.644;2023-10-13T10:22:56;36.08;9.21
75786;DHT22;64402;44.708;37.644;2023-10-13T10:25:43;35.82;9.75
75786;DHT22;64402;44.708;37.644;2023-10-13T10:28:12;35.81;9.29
75786;DHT22;64402;44.708;37.644;2023-10-13T10:30:42;35.59;9.01
75786;DHT22;64402;44.708;37.644;2023-10-13T10:33:11;34.80;8.76
75786;DHT22;64402;44.708;37.644;2023-10-13T10:35:43;35.10;8.23
75786;DHT22;64402;44.708;37.644;2023-10-13T10:38:15;35.53;7.86
75786;DHT22;64402;44.708;37.644;2023-10-13T10:43:29;37.46;7.70
75786;DHT22;64402;44.708;37.644;2023-10-13T10:46:28;37.80;6.43
75786;DHT22;64402;44.708;37.644;2023-10-13T10:48:58;36.59;8.18
75786;DHT22;64402;44.708;37.644;2023-10-13T10:51:31;36.95;7.73
75786;DHT22;64402;44.708;37.644;2023-10-13T10:54:00;35.89;8.43
75786;DHT22;64402;44.708;37.644;2023-10-13T10:56:38;35.96;7.38
75786;DHT22;64402;44.708;37.644;2023-10-13T10:59:06;35.86;8.19
75786;DHT22;64402;44.708;37.644;2023-10-13T11:01:47;36.55;7.63
75786;DHT22;64402;44.708;37.644;2023-10-13T11:04:14;36.78;7.28
75786;DHT22;64402;44.708;37.644;2023-10-13T11:06:51;36.97;5.52
75786;DHT22;64402;44.708;37.644;2023-10-13T11:09:27;37.48;6.46
75786;DHT22;64402;44.708;37.644;2023-10-13T11:14:45;37.07;6.89
75786;DHT22;64402;44.708;37.644;2023-10-13T11:17:21;36.81;6.29
75786;DHT22;64402;44.708;37.644;2023-10-13T11:20:12;37.34;7.57
75786;DHT22;64402;44.708;37.644;2023-10-13T11:22:46;36.63;8.56
75786;DHT22;64402;44.708;37.644;2023-10-13T11:25:28;36.68;8.57
75786;DHT22;64402;44.708;37.644;2023-10-13T11:27:56;36.60;8.09
75786;DHT22;64402;44.708;37.644;2023-10-13T11:30:31;37.60;6.95
75786;DHT22;64402;44.708;37.644;2023-10-13T11:35:25;36.86;7.10
75786;DHT22;64402;44.708;37.644;2023-10-13T11:37:55;36.82;7.58
75786;DHT22;64402;44.708;37.644;2023-10-13T11:40:40;36.33;8.33
75786;DHT22;64402;44.708;37.644;2023-10-13T11:43:12;36.68;7.63
75786;DHT22;64402;44.708;37.644;2023-10-13T11:45:48;36.59;5.41
75786;DHT22;64402;44.708;37.644;2023-10-13T11:48:43;36.31;8.31
75786;DHT22;64402;44.708;37.644;2023-10-13T11:51:14;36.42;7.12
75786;DHT22;64402;44.708;37.644;2023-10-13T11:53:50;35.88;7.08
75786;DHT22;64402;44.708;37.644;2023-10-13T11:56:20;37.02;6.86
75786;DHT22;64402;44.708;37.644;2023-10-13T11:58:47;37.63;7.39
75786;DHT22;64402;44.708;37.644;2023-10-13T12:01:14;37.66;5.96
75786;DHT22;64402;44.708;37.644;2023-10-13T12:03:41;38.19;6.83
75786;DHT22;64402;44.708;37.644;2023-10-13T12:06:29;37.85;8.14
75786;DHT22;64402;44.708;37.644;2023-10-13T12:09:09;36.61;9.11
75786;DHT22;64402;44.708;37.644;2023-10-13T12:11:47;36.40;9.50
75786;DHT22;64402;44.708;37.644;2023-10-13T12:14:15;36.08;8.77
75786;DHT22;64402;44.708;37.644;2023-10-13T12:16:59;36.51;8.83
75786;DHT22;64402;44.708;37.644;2023-10-13T12:19:30;36.53;8.65
75786;DHT22;64402;44.708;37.644;2023-10-13T12:21:57;35.60;9.00
75786;DHT22;64402;44.708;37.644;2023-10-13T12:24:29;34.80;9.79
75786;DHT22;64402;44.708;37.644;2023-10-13T12:27:04;34.88;9.86
75786;DHT22;64402;44.708;37.644;2023-10-13T12:29:51;35.88;8.64
75786;DHT22;64402;44.708;37.644;2023-10-13T12:32:19;36.31;7.95
75786;DHT22;64402;44.708;37.644;2023-10-13T12:34:57;36.44;7.92
75786;DHT22;64402;44.708;37.644;2023-10-13T12:37:30;36.74;7.83
75786;DHT22;64402;44.708;37.644;2023-10-13T12:40:06;36.84;7.95
75786;DHT22;64402;44.708;37.644;2023-10-13T12:42:51;35.38;9.85
75786;DHT22;64402;44.708;37.644;2023-10-13T12:45:46;35.07;9.14
75786;DHT22;64402;44.708;37.644;2023-10-13T12:48:31;34.66;10.33
75786;DHT22;64402;44.708;37.644;2023-10-13T12:51:16;35.89;8.79
75786;DHT22;64402;44.708;37.644;2023-10-13T12:53:50;35.22;9.39
75786;DHT22;64402;44.708;37.644;2023-10-13T12:56:18;34.68;9.79
75786;DHT22;64402;44.708;37.644;2023-10-13T12:58:52;34.91;9.14
75786;DHT22;64402;44.708;37.644;2023-10-13T13:01:19;35.69;8.25
75786;DHT22;64402;44.708;37.644;2023-10-13T13:03:49;35.83;8.00
75786;DHT22;64402;44.708;37.644;2023-10-13T13:06:20;35.80;7.67
75786;DHT22;64402;44.708;37.644;2023-10-13T13:08:53;35.22;8.00
75786;DHT22;64402;44.708;37.644;2023-10-13T13:11:19;35.50;7.64
75786;DHT22;64402;44.708;37.644;2023-10-13T13:13:45;35.23;7.61
75786;DHT22;64402;44.708;37.644;2023-10-13T13:16:16;35.53;7.12
75786;DHT22;64402;44.708;37.644;2023-10-13T13:18:53;35.62;7.80
75786;DHT22;64402;44.708;37.644;2023-10-13T13:21:23;36.22;7.47
75786;DHT22;64402;44.708;37.644;2023-10-13T13:23:50;36.62;7.56
75786;DHT22;64402;44.708;37.644;2023-10-13T13:26:17;36.69;7.26
75786;DHT22;64402;44.708;37.644;2023-10-13T13:28:46;36.57;6.93
75786;DHT22;64402;44.708;37.644;2023-10-13T13:31:17;36.13;7.48
75786;DHT22;64402;44.708;37.644;2023-10-13T13:33:43;35.58;7.92
75786;DHT22;64402;44.708;37.644;2023-10-13T13:36:13;35.42;8.10
75786;DHT22;64402;44.708;37.644;2023-10-13T13:38:42;35.60;8.21
75786;DHT22;64402;44.708;37.644;2023-10-13T13:41:15;34.77;8.92
75786;DHT22;64402;44.708;37.644;2023-10-13T13:43:45;34.94;8.90
75786;DHT22;64402;44.708;37.644;2023-10-13T13:46:25;34.51;9.24
75786;DHT22;64402;44.708;37.644;2023-10-13T13:48:55;33.50;10.75
75786;DHT22;64402;44.708;37.644;2023-10-13T13:51:26;33.77;10.30
75786;DHT22;64402;44.708;37.644;2023-10-13T13:53:58;34.38;9.11
75786;DHT22;64402;44.708;37.644;2023-10-13T13:56:25;34.07;10.69
75786;DHT22;64402;44.708;37.644;2023-10-13T13:58:53;33.61;11.41
75786;DHT22;64402;44.708;37.644;2023-10-13T14:01:21;33.83;11.44
75786;DHT22;64402;44.708;37.644;2023-10-13T14:03:49;33.30;11.87
75786;DHT22;64402;44.708;37.644;2023-10-13T14:06:24;32.84;12.04
75786;DHT22;64402;44.708;37.644;2023-10-13T14:08:52;32.28;12.85
75786;DHT22;64402;44.708;37.644;2023-10-13T14:11:25;32.02;13.44
75786;DHT22;64402;44.708;37.644;2023-10-13T14:14:06;31.60;13.43
75786;DHT22;64402;44.708;37.644;2023-10-13T14:16:41;30.71;14.22
75786;DHT22;64402;44.708;37.644;2023-10-13T14:19:15;28.97;16.76
75786;DHT22;64402;44.708;37.644;2023-10-13T14:21:58;27.31;19.44
75786;DHT22;64402;44.708;37.644;2023-10-13T14:24:25;25.79;21.85
75786;DHT22;64402;44.708;37.644;2023-10-13T14:27:00;24.89;23.46
75786;DHT22;64402;44.708;37.644;2023-10-13T14:29:44;24.01;24.75
75786;DHT22;64402;44.708;37.644;2023-10-13T14:32:11;23.26;28.15
75786;DHT22;64402;44.708;37.644;2023-10-13T14:34:43;22.72;30.52
75786;DHT22;64402;44.708;37.644;2023-10-13T14:37:10;22.47;30.96
75786;DHT22;64402;44.708;37.644;2023-10-13T14:39:40;22.19;31.67
75786;DHT22;64402;44.708;37.644;2023-10-13T14:42:07;21.88;32.23
75786;DHT22;64402;44.708;37.644;2023-10-13T14:44:34;21.50;32.99
75786;DHT22;64402;44.708;37.644;2023-10-13T14:47:01;21.18;33.18
75786;DHT22;64402;44.708;37.644;2023-10-13T14:49:28;21.02;32.51
75786;DHT22;64402;44.708;37.644;2023-10-13T14:51:54;20.74;32.76
75786;DHT22;64402;44.708;37.644;2023-10-13T14:54:25;20.42;34.38
75786;DHT22;64402;44.708;37.644;2023-10-13T14:57:01;20.07;35.43
75786;DHT22;64402;44.708;37.644;2023-10-13T14:59:28;19.80;36.01
75786;DHT22;64402;44.708;37.644;2023-10-13T15:02:04;19.53;35.69
75786;DHT22;64402;44.708;37.644;2023-10-13T15:04:30;19.26;36.65
75786;DHT22;64402;44.708;37.644;2023-10-13T15:07:01;19.05;37.07
75786;DHT22;64402;44.708;37.644;2023-10-13T15:09:31;18.80;38.67
75786;DHT22;64402;44.708;37.644;2023-10-13T15:11:57;18.50;39.17
75786;DHT22;64402;44.708;37.644;2023-10-13T15:14:25;18.33;39.58
75786;DHT22;64402;44.708;37.644;2023-10-13T15:16:51;18.19;39.88
75786;DHT22;64402;44.708;37.644;2023-10-13T15:19:26;18.05;39.81
75786;DHT22;64402;44.708;37.644;2023-10-13T15:21:55;17.94;40.17
75786;DHT22;64402;44.708;37.644;2023-10-13T15:24:22;17.80;40.49
75786;DHT22;64402;44.708;37.644;2023-10-13T15:26:51;17.51;42.32
75786;DHT22;64402;44.708;37.644;2023-10-13T15:29:23;17.37;43.09
75786;DHT22;64402;44.708;37.644;2023-10-13T15:31:52;17.31;42.78
75786;DHT22;64402;44.708;37.644;2023-10-13T15:34:25;17.21;43.64
75786;DHT22;64402;44.708;37.644;2023-10-13T15:36:55;17.00;44.06
75786;DHT22;64402;44.708;37.644;2023-10-13T15:39:22;16.89;44.58
75786;DHT22;64402;44.708;37.644;2023-10-13T15:41:57;16.79;44.87
75786;DHT22;64402;44.708;37.644;2023-10-13T15:44:28;16.57;45.77
75786;DHT22;64402;44.708;37.644;2023-10-13T15:46:58;16.46;46.24
75786;DHT22;64402;44.708;37.644;2023-10-13T15:49:25;16.34;46.76
75786;DHT22;64402;44.708;37.644;2023-10-13T15:51:54;16.20;47.18
75786;DHT22;64402;44.708;37.644;2023-10-13T15:54:22;16.05;47.91
75786;DHT22;64402;44.708;37.644;2023-10-13T15:56:50;15.98;48.22
75786;DHT22;64402;44.708;37.644;2023-10-13T15:59:20;15.96;48.41
75786;DHT22;64402;44.708;37.644;2023-10-13T16:01:49;15.96;48.59
75786;DHT22;64402;44.708;37.644;2023-10-13T16:04:20;15.75;49.44
75786;DHT22;64402;44.708;37.644;2023-10-13T16:06:47;15.68;49.28
75786;DHT22;64402;44.708;37.644;2023-10-13T16:09:16;15.55;50.11
75786;DHT22;64402;44.708;37.644;2023-10-13T16:11:54;15.49;50.37
75786;DHT22;64402;44.708;37.644;2023-10-13T16:14:21;15.41;51.05
75786;DHT22;64402;44.708;37.644;2023-10-13T16:16:49;15.33;51.19
75786;DHT22;64402;44.708;37.644;2023-10-13T16:19:17;15.25;52.11
75786;DHT22;64402;44.708;37.644;2023-10-13T16:21:48;15.15;52.26
75786;DHT22;64402;44.708;37.644;2023-10-13T16:24:15;15.12;51.95
75786;DHT22;64402;44.708;37.644;2023-10-13T16:29:11;14.98;52.60
75786;DHT22;64402;44.708;37.644;2023-10-13T16:31:37;14.86;53.17
75786;DHT22;64402;44.708;37.644;2023-10-13T16:34:04;14.81;53.38
75786;DHT22;64402;44.708;37.644;2023-10-13T16:36:31;14.73;53.47